Skip Navigation LinksHome page > Weather > Current weather Skip Navigation Links

Current Weather

Ndjamena, Chad

For information only: do not use for flight planning or navigation.
Latest weather
Observation time Sunday, November 23, 2014 12:00 PM WAT
Local time Sunday, November 23, 2014 12:51 PM WAT
Flight conditions Visual Meteorological Conditions
Winds
Wind direction East-Northeast (60°)
Wind speed 13 mph
Visibility 6.2 mi.
Sky condition
Ceiling unlimited
Sky clear
Temperature 93°F
Dewpoint 59°F
Altimeter 29.91 in.Hg
Derived measurements
Relative humidity 32%
Heat index 93°F
Density altitude 2700 ft.
Remarks
Ceiling and visibility OK.
No significant changes expected in the next two hours.
METAR FTTJ 231100Z 06011KT CAVOK 34/15 Q1013 NOSIG

Settings

Location code

InnerDrive.Weather 4.0.5399.0 Release CLR 4.0.30319.34014
Copyright ©2014 Inner Drive Technology. All rights reserved. Portions Copyright ©1986-2014 David Braverman.

Find weather

Site navigation


Skip Navigation Links

Place info

Page info

PayPal - The safer, easier way to pay online!

Return home.

Copyright ©2014 Inner Drive Technology. Purveyors of fine, hand-crafted computer software. Page printed 2014-11-23T11:51:48 UTC.